General WM J Fox Airfield Lancaster US
ICAO: KWJF
IATA: WJF
Category: Medium
Scheduled Services: No

Elevation: 2351 ft
TransAlt. 18000 ft.

Airport Communications:
JOSHUA APP/DEP:126.1
ATIS:126.3
AWOS 3:133.875
CTAF:120.3
GND:121.7
RIVERSIDE RDO:122.2
FOX TWR:120.3
UNICOM:122.95

KWJF Zoom In..

If you have problems with the map follow the link
https://www.worldairports.se/pages/airport.php?
ICAO=KWJF

Runways:

(A) RW 06 length 7201 ft width 150 ft
---- / hdg 57

(B) RW 24 length 7201 ft width 150 ft
---- / hdg 237

Location; KWJF
Day. 08 / Time. 18.56 Zulu
* Altimeter: 30.05
* Temperature: 11° c. 51.8°f.
* Wind from: 240° Speed 04 kn.
Dewpoint: 10° c.
Visibility: 2 m.
Clouds: Few 2500 ft.
Clouds: Broken 4300 ft.
Clouds: Overcast 5500 ft.
Conditions: Mist.

KWJF 081856Z 24004KT 2 1/2SM +RA BR FEW025 BKN043 OVC055 11/10 A3005 RMK AO2 SLP174 P0012 T01110100 $


Wind From 240°
Speed 04 kn.

 
 
jpsmedia worldairports.se 2019   terms of use